createdAt,value
2022-09-24T00:02:35.760Z,0
2022-09-24T00:07:17.101Z,0
2022-09-24T00:11:59.375Z,0
2022-09-24T00:16:41.597Z,0
2022-09-24T00:21:23.909Z,0
2022-09-24T00:26:06.108Z,0
2022-09-24T00:30:48.422Z,0
2022-09-24T00:35:30.742Z,0
2022-09-24T00:40:13.062Z,0
2022-09-24T00:44:55.313Z,0
2022-09-24T00:49:37.574Z,0
2022-09-24T00:54:19.893Z,0
2022-09-24T00:59:02.098Z,0
2022-09-24T01:03:44.408Z,0
2022-09-24T01:08:25.722Z,0
2022-09-24T01:13:08.067Z,0
2022-09-24T01:17:50.248Z,0
2022-09-24T01:22:32.545Z,0
2022-09-24T01:27:14.908Z,0
2022-09-24T01:31:57.073Z,0
2022-09-24T01:36:39.382Z,0
2022-09-24T01:41:21.689Z,0
2022-09-24T01:46:03.923Z,0
2022-09-24T01:50:46.242Z,0
2022-09-24T01:55:28.553Z,0
2022-09-24T02:00:10.748Z,0
2022-09-24T02:04:53.053Z,0
2022-09-24T02:09:34.362Z,0
2022-09-24T02:14:16.688Z,0
2022-09-24T02:18:58.885Z,0
2022-09-24T02:23:41.190Z,0
2022-09-24T02:28:23.502Z,0
2022-09-24T02:33:05.744Z,0
2022-09-24T02:37:48.020Z,0
2022-09-24T02:42:30.336Z,0
2022-09-24T02:47:12.659Z,0
2022-09-24T02:51:54.887Z,0
2022-09-24T02:56:37.174Z,0
2022-09-24T03:01:19.481Z,0
2022-09-24T03:06:01.723Z,0
2022-09-24T03:10:43.005Z,0
2022-09-24T03:15:25.316Z,0
2022-09-24T03:20:07.645Z,0
2022-09-24T03:24:49.833Z,0
2022-09-24T03:29:32.149Z,0
2022-09-24T03:34:14.457Z,0
2022-09-24T03:38:56.671Z,0
2022-09-24T03:43:38.977Z,0
2022-09-24T03:48:21.297Z,0
2022-09-24T03:53:03.505Z,0
2022-09-24T03:57:45.888Z,0
2022-09-24T04:02:28.126Z,0
2022-09-24T04:07:10.344Z,0
2022-09-24T04:16:33.965Z,0
2022-09-24T04:21:16.279Z,0
2022-09-24T04:25:58.501Z,0
2022-09-24T04:30:40.795Z,0
2022-09-24T04:35:23.126Z,0
2022-09-24T04:40:05.312Z,0
2022-09-24T04:44:47.660Z,0
2022-09-24T04:49:30.054Z,0
2022-09-24T04:54:12.151Z,0
2022-09-24T04:58:54.503Z,0
2022-09-24T05:03:36.772Z,5
2022-09-24T05:08:18.084Z,11
2022-09-24T05:12:59.389Z,11
2022-09-24T05:17:41.624Z,16
2022-09-24T05:22:22.929Z,22
2022-09-24T05:27:04.225Z,22
2022-09-24T05:31:46.544Z,28
2022-09-24T05:36:28.847Z,39
2022-09-24T05:41:11.058Z,50
2022-09-24T05:45:53.373Z,61
2022-09-24T05:50:35.685Z,67
2022-09-24T05:55:17.890Z,78
2022-09-24T06:00:00.211Z,84
2022-09-24T06:04:42.621Z,84
2022-09-24T06:09:24.828Z,78
2022-09-24T06:14:07.034Z,90
2022-09-24T06:18:49.349Z,101
2022-09-24T06:23:31.659Z,123
2022-09-24T06:28:12.882Z,118
2022-09-24T06:32:55.185Z,101
2022-09-24T06:37:37.556Z,106
2022-09-24T06:42:19.706Z,123
2022-09-24T06:47:02.013Z,135
2022-09-24T06:51:44.335Z,151
2022-09-24T06:56:26.637Z,163
2022-09-24T07:01:08.004Z,157
2022-09-24T07:05:49.161Z,140
2022-09-24T07:10:31.470Z,146
2022-09-24T07:15:13.813Z,168
2022-09-24T07:19:55.995Z,196
2022-09-24T07:24:38.320Z,208
2022-09-24T07:29:19.637Z,270
2022-09-24T07:34:00.934Z,258
2022-09-24T07:38:43.240Z,253
2022-09-24T07:43:25.471Z,247
2022-09-24T07:48:07.786Z,258
2022-09-24T07:52:50.071Z,236
2022-09-24T07:57:32.287Z,270
2022-09-24T08:02:14.592Z,270
2022-09-24T08:06:56.908Z,421
2022-09-24T08:11:39.155Z,416
2022-09-24T08:16:21.462Z,298
2022-09-24T08:21:03.743Z,326
2022-09-24T08:25:45.963Z,365
2022-09-24T08:30:28.264Z,371
2022-09-24T08:35:09.604Z,393
2022-09-24T08:39:51.895Z,455
2022-09-24T08:44:33.200Z,540
2022-09-24T08:49:15.407Z,523
2022-09-24T08:53:57.768Z,624
2022-09-24T08:58:40.050Z,641
2022-09-24T09:03:22.284Z,607
2022-09-24T09:08:04.603Z,669
2022-09-24T09:12:46.919Z,781
2022-09-24T09:17:29.078Z,731
2022-09-24T09:22:11.457Z,821
2022-09-24T09:26:53.709Z,680
2022-09-24T09:31:35.930Z,607
2022-09-24T09:36:18.254Z,669
2022-09-24T09:41:00.600Z,646
2022-09-24T09:45:41.750Z,618
2022-09-24T09:50:24.067Z,607
2022-09-24T09:55:06.379Z,641
2022-09-24T09:59:48.668Z,641
2022-09-24T10:04:30.885Z,585
2022-09-24T10:09:13.187Z,607
2022-09-24T10:13:55.503Z,663
2022-09-24T10:18:36.833Z,911
2022-09-24T10:23:19.026Z,1192
2022-09-24T10:28:00.333Z,973
2022-09-24T10:32:42.646Z,590
2022-09-24T10:37:25.008Z,528
2022-09-24T10:42:07.171Z,523
2022-09-24T10:46:48.495Z,534
2022-09-24T10:51:29.784Z,489
2022-09-24T10:56:12.106Z,528
2022-09-24T11:00:54.315Z,652
2022-09-24T11:05:36.729Z,731
2022-09-24T11:10:18.939Z,658
2022-09-24T11:15:01.147Z,601
2022-09-24T11:19:43.495Z,556
2022-09-24T11:24:25.784Z,517
2022-09-24T11:29:08.011Z,556
2022-09-24T11:33:50.296Z,596
2022-09-24T11:38:32.610Z,613
2022-09-24T11:43:14.820Z,601
2022-09-24T11:47:57.130Z,528
2022-09-24T11:52:38.452Z,523
2022-09-24T11:57:20.751Z,450
2022-09-24T12:02:02.964Z,472
2022-09-24T12:06:45.275Z,461
2022-09-24T12:11:27.662Z,382
2022-09-24T12:16:09.800Z,382
2022-09-24T12:20:52.114Z,489
2022-09-24T12:25:34.428Z,506
2022-09-24T12:30:16.640Z,450
2022-09-24T12:34:58.970Z,405
2022-09-24T12:39:41.258Z,371
2022-09-24T12:44:23.494Z,337
2022-09-24T12:49:05.786Z,331
2022-09-24T12:53:47.117Z,376
2022-09-24T12:58:29.307Z,455
2022-09-24T13:03:11.682Z,495
2022-09-24T13:07:53.927Z,579
2022-09-24T13:12:36.190Z,630
2022-09-24T13:17:18.458Z,596
2022-09-24T13:22:00.766Z,922
2022-09-24T13:26:42.985Z,832
2022-09-24T13:31:25.291Z,624
2022-09-24T13:36:07.604Z,680
2022-09-24T13:40:49.813Z,787
2022-09-24T13:45:32.129Z,613
2022-09-24T13:50:14.460Z,618
2022-09-24T13:54:56.650Z,663
2022-09-24T13:59:37.957Z,534
2022-09-24T14:04:20.318Z,472
2022-09-24T14:09:02.584Z,461
2022-09-24T14:13:44.839Z,534
2022-09-24T14:18:27.106Z,483
2022-09-24T14:23:09.416Z,455
2022-09-24T14:27:51.640Z,450
2022-09-24T14:32:33.999Z,438
2022-09-24T14:37:16.257Z,388
2022-09-24T14:41:58.467Z,337
2022-09-24T14:46:40.779Z,348
2022-09-24T14:51:23.104Z,270
2022-09-24T14:56:05.315Z,208
2022-09-24T15:00:46.609Z,191
2022-09-24T15:05:28.921Z,196
2022-09-24T15:10:11.133Z,213
2022-09-24T15:14:53.450Z,163
2022-09-24T15:19:35.754Z,135
2022-09-24T15:24:17.968Z,135
2022-09-24T15:29:00.319Z,135
2022-09-24T15:33:42.686Z,112
2022-09-24T15:38:24.907Z,106
2022-09-24T15:43:07.115Z,106
2022-09-24T15:47:49.427Z,73
2022-09-24T15:52:31.772Z,78
2022-09-24T15:57:13.953Z,61
2022-09-24T16:01:55.272Z,56
2022-09-24T16:06:37.570Z,61
2022-09-24T16:11:19.780Z,67
2022-09-24T16:16:02.091Z,67
2022-09-24T16:20:44.402Z,67
2022-09-24T16:25:26.614Z,73
2022-09-24T16:30:08.930Z,61
2022-09-24T16:34:51.243Z,39
2022-09-24T16:39:33.483Z,22
2022-09-24T16:44:15.763Z,16
2022-09-24T16:48:58.071Z,11
2022-09-24T16:53:40.286Z,5
2022-09-24T16:58:22.632Z,5
2022-09-24T17:03:03.912Z,5
2022-09-24T17:07:46.216Z,0
2022-09-24T17:12:28.441Z,0
2022-09-24T17:17:10.742Z,0
2022-09-24T17:21:53.049Z,0
2022-09-24T17:26:35.278Z,0
2022-09-24T17:31:17.681Z,0
2022-09-24T17:35:59.935Z,0
2022-09-24T17:40:42.112Z,0
2022-09-24T17:45:24.452Z,0
2022-09-24T17:50:06.719Z,0
2022-09-24T17:54:48.931Z,0
2022-09-24T17:59:31.287Z,0
2022-09-24T18:04:12.651Z,0
2022-09-24T18:08:54.860Z,0
2022-09-24T18:13:37.118Z,0
2022-09-24T18:18:19.456Z,0
2022-09-24T18:23:01.828Z,0
2022-09-24T18:27:44.027Z,0
2022-09-24T18:32:26.222Z,0
2022-09-24T18:41:50.738Z,0
2022-09-24T18:46:33.082Z,0
2022-09-24T18:51:15.366Z,0
2022-09-24T18:55:57.575Z,0
2022-09-24T19:00:39.890Z,0
2022-09-24T19:05:21.193Z,0
2022-09-24T19:10:03.507Z,0
2022-09-24T19:14:45.717Z,0
2022-09-24T19:19:28.073Z,0
2022-09-24T19:24:10.384Z,0
2022-09-24T19:28:52.558Z,0
2022-09-24T19:33:34.862Z,0
2022-09-24T19:38:17.201Z,0
2022-09-24T19:42:59.386Z,0
2022-09-24T19:47:41.697Z,0
2022-09-24T19:52:24.007Z,0
2022-09-24T19:57:06.227Z,0
2022-09-24T20:01:48.612Z,0
2022-09-24T20:06:29.878Z,0
2022-09-24T20:11:12.153Z,0
2022-09-24T20:15:54.368Z,0
2022-09-24T20:20:36.678Z,0
2022-09-24T20:25:18.986Z,0
2022-09-24T20:30:01.198Z,0
2022-09-24T20:34:43.539Z,0
2022-09-24T20:39:25.845Z,0
2022-09-24T20:44:08.045Z,0
2022-09-24T20:48:50.345Z,0
2022-09-24T20:53:32.688Z,0
2022-09-24T20:58:14.975Z,0
2022-09-24T21:02:57.189Z,0
2022-09-24T21:07:38.538Z,0
2022-09-24T21:12:20.861Z,0
2022-09-24T21:17:03.009Z,0
2022-09-24T21:21:45.392Z,0
2022-09-24T21:26:27.631Z,0
2022-09-24T21:31:09.844Z,0
2022-09-24T21:35:52.156Z,0
2022-09-24T21:40:34.470Z,0
2022-09-24T21:45:16.782Z,0
2022-09-24T21:49:58.990Z,0
2022-09-24T21:54:41.338Z,0
2022-09-24T21:59:23.528Z,0
2022-09-24T22:04:05.836Z,0
2022-09-24T22:08:47.133Z,0
2022-09-24T22:13:29.445Z,0
2022-09-24T22:18:11.657Z,0
2022-09-24T22:22:53.957Z,0
2022-09-24T22:27:36.264Z,0
2022-09-24T22:32:18.481Z,0
2022-09-24T22:37:00.787Z,0
2022-09-24T22:41:43.127Z,0
2022-09-24T22:46:25.309Z,0
2022-09-24T22:51:07.679Z,0
2022-09-24T22:55:49.946Z,0
2022-09-24T23:00:32.146Z,0
2022-09-24T23:05:14.459Z,0
2022-09-24T23:09:55.769Z,0
2022-09-24T23:14:38.087Z,0
2022-09-24T23:19:20.289Z,0
2022-09-24T23:24:02.646Z,0
2022-09-24T23:28:44.917Z,0
2022-09-24T23:33:27.124Z,0
2022-09-24T23:38:09.453Z,0
2022-09-24T23:42:51.748Z,0
2022-09-24T23:47:33.963Z,0
2022-09-24T23:52:16.273Z,0
2022-09-24T23:56:58.583Z,0
